Time;durP1;ratioP1;P1;durP2;ratioP2;P2;SDS_P1;SDS_P2;PMS_P1;PMS_P2;Temp;Humidity;BMP_temperature;BMP_pressure;BME280_temperature;BME280_humidity;BME280_pressure;Samples;Min_cycle;Max_cycle;Signal;HPM_P1;HPM_P2
2022/01/31 00:00:12;;;;;;;12.30;3.55;;;;;;;2.58;67.98;96076.00;5013374;28;20050;-46
2022/01/31 00:02:40;;;;;;;11.50;3.70;;;;;;;2.48;68.49;96060.84;5006267;28;20119;-46
2022/01/31 00:05:08;;;;;;;10.77;3.83;;;;;;;2.47;68.69;96045.06;5014155;28;20491;-47
2022/01/31 00:07:35;;;;;;;13.40;3.97;;;;;;;2.48;68.19;96033.34;5031194;28;20037;-47
2022/01/31 00:10:07;;;;;;;9.10;3.33;;;;;;;2.46;68.65;96017.56;5024098;28;20050;-47
2022/01/31 00:12:47;;;;;;;7.28;3.13;;;;;;;2.46;68.88;96008.78;5005881;28;20076;-45
2022/01/31 00:15:15;;;;;;;13.05;4.35;;;;;;;2.50;68.50;96007.94;5013885;28;20038;-46
2022/01/31 00:17:42;;;;;;;7.90;3.47;;;;;;;2.49;68.94;96009.00;5013054;28;20418;-48
2022/01/31 00:20:09;;;;;;;10.82;3.60;;;;;;;2.52;68.38;96002.31;5011155;28;20050;-44
2022/01/31 00:22:36;;;;;;;10.23;3.55;;;;;;;2.46;68.28;95998.09;5016791;28;20046;-49
2022/01/31 00:25:03;;;;;;;10.60;3.30;;;;;;;2.39;68.97;95997.63;5011780;28;20046;-48
2022/01/31 00:27:30;;;;;;;12.15;3.60;;;;;;;2.36;69.14;95996.28;5020036;28;20057;-45
2022/01/31 00:29:57;;;;;;;7.97;2.80;;;;;;;2.44;68.99;95987.69;5013406;28;20042;-48
2022/01/31 00:32:25;;;;;;;11.15;3.83;;;;;;;2.68;68.69;95989.63;4993542;28;20133;-46
2022/01/31 00:34:52;;;;;;;10.40;3.70;;;;;;;2.19;70.40;95990.53;5002450;28;20454;-46
2022/01/31 00:37:19;;;;;;;15.27;4.20;;;;;;;2.53;69.01;95972.66;5013520;28;20455;-46
2022/01/31 00:39:46;;;;;;;14.65;4.18;;;;;;;2.53;69.21;95978.00;5029613;28;20410;-46
2022/01/31 00:42:13;;;;;;;10.35;4.22;;;;;;;2.53;69.01;95963.84;5013593;28;20050;-45
2022/01/31 00:44:51;;;;;;;11.90;3.50;;;;;;;2.43;68.99;95955.91;5031256;28;20041;-47
2022/01/31 00:47:22;;;;;;;9.48;3.20;;;;;;;2.45;69.20;95954.56;5013124;28;20042;-47
2022/01/31 00:50:10;;;;;;;10.65;3.33;;;;;;;2.39;69.54;95947.66;5009522;28;20466;-48
2022/01/31 00:52:40;;;;;;;15.15;3.50;;;;;;;2.50;69.39;95945.69;5017798;28;20041;-47
2022/01/31 00:55:11;;;;;;;10.95;3.40;;;;;;;2.44;69.11;95944.97;4994675;28;20046;-48
2022/01/31 00:57:40;;;;;;;17.30;8.43;;;;;;;2.56;68.70;95940.03;5023271;28;20044;-46
2022/01/31 01:00:11;;;;;;;16.05;3.97;;;;;;;2.46;69.10;95934.00;5013522;28;20049;-46
2022/01/31 01:02:39;;;;;;;7.25;3.10;;;;;;;2.48;68.93;95918.50;5009705;28;20398;-47
2022/01/31 01:05:08;;;;;;;10.70;3.47;;;;;;;2.67;68.82;95929.28;4994312;28;20295;-44
2022/01/31 01:07:35;;;;;;;10.45;3.13;;;;;;;2.34;70.68;95934.38;5004066;28;20065;-49
2022/01/31 01:10:03;;;;;;;8.80;3.50;;;;;;;2.07;71.63;95926.81;5012851;28;20049;-48
2022/01/31 01:12:30;;;;;;;13.43;3.17;;;;;;;2.09;71.28;95922.00;5012931;28;20075;-45
2022/01/31 01:14:57;;;;;;;10.52;3.30;;;;;;;2.29;70.77;95924.53;5030769;28;20045;-46
2022/01/31 01:17:27;;;;;;;8.10;3.00;;;;;;;2.58;69.81;95923.75;5014443;28;20045;-49
2022/01/31 01:19:54;;;;;;;8.38;3.17;;;;;;;2.37;70.66;95909.75;5000983;28;20074;-53
2022/01/31 01:22:21;;;;;;;8.60;3.17;;;;;;;1.89;72.54;95904.28;5002165;28;20065;-53
2022/01/31 01:24:49;;;;;;;11.13;3.90;;;;;;;1.60;74.60;95904.97;4971585;28;20042;-54
2022/01/31 01:27:19;;;;;;;12.88;3.50;;;;;;;1.66;74.50;95900.44;4988049;28;20034;-53
2022/01/31 01:29:48;;;;;;;10.00;3.17;;;;;;;1.77;73.73;95901.94;4951593;28;20411;-52
2022/01/31 01:32:17;;;;;;;8.32;2.85;;;;;;;2.30;71.92;95893.28;4951041;28;20046;-49
2022/01/31 01:34:44;;;;;;;8.77;3.40;;;;;;;2.40;70.92;95893.19;4955549;28;20500;-51
2022/01/31 01:37:14;;;;;;;10.07;3.28;;;;;;;1.68;74.13;95886.81;4971076;28;20508;-51
2022/01/31 01:39:42;;;;;;;12.55;3.50;;;;;;;1.69;74.56;95888.38;4972311;28;20046;-50
2022/01/31 01:42:11;;;;;;;12.05;3.50;;;;;;;2.17;72.49;95878.69;4954549;28;20043;-50
2022/01/31 01:44:46;;;;;;;11.70;3.40;;;;;;;2.36;71.00;95862.78;4973179;28;20047;-51
2022/01/31 01:47:18;;;;;;;15.05;5.35;;;;;;;2.39;71.37;95862.22;4972065;28;20393;-50
2022/01/31 01:49:47;;;;;;;12.27;4.03;;;;;;;2.55;70.35;95842.31;4971252;28;20288;-50
2022/01/31 01:52:17;;;;;;;12.73;2.95;;;;;;;2.26;71.74;95828.19;4954161;28;20565;-51
2022/01/31 01:54:48;;;;;;;8.05;3.03;;;;;;;1.72;74.36;95824.63;4970759;28;20114;-50
2022/01/31 01:57:17;;;;;;;9.63;3.45;;;;;;;2.18;72.75;95816.25;4970760;28;20039;-51
2022/01/31 01:59:45;;;;;;;12.00;3.70;;;;;;;2.48;70.70;95817.03;4953759;28;20039;-52
2022/01/31 02:02:35;;;;;;;6.90;3.30;;;;;;;1.36;76.22;95800.06;4965904;28;20117;-49
2022/01/31 02:05:04;;;;;;;11.23;3.90;;;;;;;1.57;75.29;95782.06;4971192;28;20073;-50
2022/01/31 02:07:39;;;;;;;12.40;3.78;;;;;;;1.99;73.38;95752.09;4970277;28;20105;-50
2022/01/31 02:10:09;;;;;;;12.45;3.63;;;;;;;1.71;75.48;95752.88;4954847;28;20488;-53
2022/01/31 02:12:46;;;;;;;10.93;3.28;;;;;;;2.17;72.54;95744.44;4970267;28;20385;-53
2022/01/31 02:15:32;;;;;;;11.07;3.33;;;;;;;1.90;74.08;95748.44;4971641;28;20050;-53
2022/01/31 02:18:45;;;;;;;10.05;3.33;;;;;;;1.47;76.93;95748.28;4864483;29;20135;-54
2022/01/31 02:21:19;;;;;;;11.85;3.85;;;;;;;1.27;77.69;95751.91;4863913;29;20064;-53
2022/01/31 02:23:48;;;;;;;9.55;3.60;;;;;;;1.21;78.33;95754.88;4901918;28;20082;-53
2022/01/31 02:26:31;;;;;;;11.23;4.22;;;;;;;1.79;75.71;95745.09;4986651;28;20043;-55
2022/01/31 02:29:11;;;;;;;8.02;3.25;;;;;;;1.88;75.07;95718.59;4954080;28;20051;-53
2022/01/31 02:31:45;;;;;;;13.32;3.50;;;;;;;2.25;72.84;95699.25;4970911;28;20047;-53
2022/01/31 02:34:14;;;;;;;11.15;3.97;;;;;;;2.31;72.59;95719.47;4953937;28;20042;-53
2022/01/31 02:36:41;;;;;;;10.70;3.35;;;;;;;2.05;73.62;95704.81;4970331;28;20081;-50
2022/01/31 02:39:09;;;;;;;11.10;3.33;;;;;;;2.28;72.45;95698.69;4952491;28;20049;-53
2022/01/31 02:41:44;;;;;;;10.48;3.70;;;;;;;1.77;74.55;95701.88;4954029;28;20049;-49
2022/01/31 02:44:16;;;;;;;10.45;3.60;;;;;;;2.23;72.94;95703.28;4969987;28;20046;-53
2022/01/31 02:47:12;;;;;;;10.18;3.30;;;;;;;1.89;74.46;95703.41;4970015;28;20065;-53
2022/01/31 02:49:50;;;;;;;16.35;3.55;;;;;;;1.70;75.08;95698.75;4968081;28;20148;-50
2022/01/31 02:52:18;;;;;;;10.45;4.47;;;;;;;2.04;73.30;95684.53;4952416;28;20523;-53
2022/01/31 02:54:46;;;;;;;12.45;3.55;;;;;;;2.27;72.51;95675.72;4952711;28;20038;-51
2022/01/31 02:57:14;;;;;;;10.50;4.00;;;;;;;1.92;74.43;95682.28;4969032;28;20039;-52
2022/01/31 02:59:41;;;;;;;7.95;3.38;;;;;;;2.18;73.19;95665.97;4969352;28;20547;-49
2022/01/31 03:02:09;;;;;;;11.73;3.67;;;;;;;2.49;72.08;95664.50;4969011;28;20513;-53
2022/01/31 03:04:36;;;;;;;12.43;4.05;;;;;;;2.49;71.93;95661.06;4970130;28;20077;-52
2022/01/31 03:07:09;;;;;;;9.40;3.45;;;;;;;2.37;72.95;95642.75;4961095;28;20122;-51
2022/01/31 03:09:36;;;;;;;8.85;3.63;;;;;;;2.52;71.94;95637.22;4969032;28;20399;-54
2022/01/31 03:12:06;;;;;;;9.13;3.10;;;;;;;2.43;71.46;95630.16;4968216;28;20435;-53
2022/01/31 03:14:40;;;;;;;7.05;3.42;;;;;;;2.29;72.27;95616.72;4952972;28;20049;-52
2022/01/31 03:17:15;;;;;;;11.05;3.80;;;;;;;1.78;74.99;95615.44;4968824;28;20066;-51
2022/01/31 03:19:42;;;;;;;10.32;3.25;;;;;;;1.33;77.41;95620.19;4953061;28;20093;-53
2022/01/31 03:22:09;;;;;;;14.40;4.47;;;;;;;1.45;76.82;95611.00;4969799;28;20510;-54
2022/01/31 03:24:36;;;;;;;15.70;4.07;;;;;;;1.76;75.76;95614.94;4985128;28;20074;-49
2022/01/31 03:27:03;;;;;;;12.82;3.70;;;;;;;1.89;74.54;95626.03;4968845;28;20072;-52
2022/01/31 03:29:31;;;;;;;15.68;3.60;;;;;;;1.49;76.42;95618.16;4952819;28;20568;-52
2022/01/31 03:31:57;;;;;;;14.98;3.60;;;;;;;2.05;73.89;95609.56;4968263;28;20747;-53
2022/01/31 03:34:25;;;;;;;11.45;3.70;;;;;;;2.10;73.40;95612.13;4952924;28;20157;-51
2022/01/31 03:36:53;;;;;;;10.75;3.70;;;;;;;2.09;73.37;95599.88;4970291;28;20047;-51
2022/01/31 03:39:23;;;;;;;13.38;4.32;;;;;;;2.00;73.99;95596.25;4967453;28;20488;-52
2022/01/31 03:41:50;;;;;;;10.45;3.90;;;;;;;2.19;73.31;95582.16;4952991;28;20052;-54
2022/01/31 03:44:17;;;;;;;11.52;3.83;;;;;;;1.97;73.94;95566.69;4968327;28;20050;-52
2022/01/31 03:46:47;;;;;;;12.23;4.40;;;;;;;1.79;75.11;95570.91;4984982;28;20043;-53
2022/01/31 03:49:19;;;;;;;12.18;3.88;;;;;;;1.99;74.32;95556.53;4952061;28;20091;-54
2022/01/31 03:51:47;;;;;;;11.43;3.83;;;;;;;1.90;74.40;95543.03;4952393;28;20042;-51
2022/01/31 03:54:20;;;;;;;13.55;5.60;;;;;;;1.83;74.46;95532.72;4951972;28;20035;-52
2022/01/31 03:56:47;;;;;;;9.70;3.45;;;;;;;1.81;74.79;95534.06;4968813;28;20077;-52
2022/01/31 03:59:36;;;;;;;10.50;3.60;;;;;;;1.66;75.55;95537.72;4938810;28;20126;-50
2022/01/31 04:02:06;;;;;;;10.52;4.47;;;;;;;1.78;74.99;95523.97;4950378;28;20053;-53
2022/01/31 04:04:35;;;;;;;12.00;3.60;;;;;;;1.77;74.64;95515.19;4952781;28;20053;-51
2022/01/31 04:07:02;;;;;;;15.80;3.92;;;;;;;1.76;74.79;95494.13;4969536;28;20046;-54
2022/01/31 04:09:29;;;;;;;7.10;3.55;;;;;;;1.76;74.80;95494.13;4969395;28;20039;-54
2022/01/31 04:11:56;;;;;;;13.18;3.65;;;;;;;1.78;75.00;95468.75;4969026;28;20042;-50
2022/01/31 04:14:26;;;;;;;16.10;4.18;;;;;;;1.90;74.21;95481.66;4969179;28;20075;-53
2022/01/31 04:16:55;;;;;;;8.48;3.15;;;;;;;1.38;76.97;95480.72;4969563;28;20492;-52
2022/01/31 04:19:23;;;;;;;14.38;4.22;;;;;;;1.70;75.61;95469.41;4968536;28;20546;-51
2022/01/31 04:21:50;;;;;;;8.07;3.60;;;;;;;1.83;75.40;95450.03;4967889;28;20039;-53
2022/01/31 04:24:23;;;;;;;14.65;3.95;;;;;;;1.81;74.84;95454.84;4969030;28;20101;-50
2022/01/31 04:26:59;;;;;;;14.90;3.83;;;;;;;1.75;75.40;95447.19;4969908;28;20105;-50
2022/01/31 04:29:31;;;;;;;9.15;3.13;;;;;;;1.69;76.11;95427.00;4969081;28;20411;-52
2022/01/31 04:31:58;;;;;;;9.13;3.42;;;;;;;1.85;75.37;95428.38;4969245;28;20067;-50
2022/01/31 04:34:25;;;;;;;12.50;3.92;;;;;;;1.84;75.05;95426.81;4970113;28;20098;-52
2022/01/31 04:36:52;;;;;;;15.00;4.45;;;;;;;1.79;75.75;95427.69;4970393;28;20058;-54
2022/01/31 04:39:19;;;;;;;9.48;4.15;;;;;;;1.78;75.56;95423.41;4969353;28;20035;-51
2022/01/31 04:41:49;;;;;;;11.13;3.67;;;;;;;1.71;76.46;95432.84;4969455;28;20077;-51
2022/01/31 04:44:17;;;;;;;12.15;3.15;;;;;;;1.83;75.72;95419.88;4984512;28;20058;-52
2022/01/31 04:46:49;;;;;;;11.00;2.83;;;;;;;1.76;76.14;95408.78;4969921;28;20118;-52
2022/01/31 04:49:16;;;;;;;11.90;4.10;;;;;;;1.74;76.24;95373.59;4968901;28;20404;-50
2022/01/31 04:51:43;;;;;;;10.82;3.63;;;;;;;1.87;75.80;95355.00;4969022;28;20047;-50
2022/01/31 04:54:10;;;;;;;11.68;3.50;;;;;;;1.79;76.01;95346.88;4969600;28;20047;-49
2022/01/31 04:56:40;;;;;;;18.00;4.57;;;;;;;1.79;76.28;95346.88;4968507;28;20465;-50
2022/01/31 04:59:08;;;;;;;11.32;4.15;;;;;;;1.75;76.27;95343.97;4969742;28;20121;-51
2022/01/31 05:01:38;;;;;;;9.02;3.25;;;;;;;1.80;76.65;95351.13;4968918;28;20050;-51
2022/01/31 05:04:06;;;;;;;8.77;2.90;;;;;;;1.95;76.19;95369.56;4969506;28;20512;-49
2022/01/31 05:06:36;;;;;;;13.07;3.63;;;;;;;1.81;76.42;95360.69;4970785;28;20535;-53
2022/01/31 05:09:04;;;;;;;13.57;3.33;;;;;;;1.67;76.85;95351.84;4972790;28;20043;-50
2022/01/31 05:11:32;;;;;;;9.85;3.15;;;;;;;1.90;76.40;95364.28;4972804;28;20499;-50
2022/01/31 05:13:59;;;;;;;9.13;3.47;;;;;;;2.10;76.26;95366.63;4972861;28;20051;-53
2022/01/31 05:16:26;;;;;;;16.02;3.67;;;;;;;2.14;75.60;95345.47;4971898;28;20089;-54
2022/01/31 05:18:59;;;;;;;9.73;3.33;;;;;;;1.73;77.73;95332.03;4971625;28;20043;-53
2022/01/31 05:21:26;;;;;;;11.30;3.90;;;;;;;1.55;79.03;95323.75;4972528;28;20043;-54
2022/01/31 05:23:53;;;;;;;12.60;3.63;;;;;;;1.85;77.46;95327.84;4953909;28;20464;-54
2022/01/31 05:26:20;;;;;;;11.80;4.15;;;;;;;1.71;78.88;95315.50;4972488;28;20102;-51
2022/01/31 05:28:46;;;;;;;11.98;4.15;;;;;;;1.80;78.67;95313.78;4972728;28;20086;-54
2022/01/31 05:31:13;;;;;;;10.90;4.30;;;;;;;1.63;79.44;95306.31;4972304;28;20046;-53
2022/01/31 05:33:40;;;;;;;17.38;4.88;;;;;;;1.81;79.14;95300.13;4971033;28;20078;-52
2022/01/31 05:36:07;;;;;;;10.98;4.82;;;;;;;1.76;79.05;95312.78;4973323;28;20137;-53
2022/01/31 05:38:37;;;;;;;14.18;4.88;;;;;;;1.85;78.95;95317.16;4972461;28;20034;-54
2022/01/31 05:41:07;;;;;;;13.18;4.95;;;;;;;1.85;79.27;95308.34;4971312;28;20401;-52
2022/01/31 05:43:35;;;;;;;12.38;4.43;;;;;;;1.72;80.65;95304.53;4972729;28;20043;-54
2022/01/31 05:46:03;;;;;;;12.95;5.10;;;;;;;1.76;80.18;95300.22;4972058;28;20094;-52
2022/01/31 05:48:30;;;;;;;14.30;5.35;;;;;;;1.84;79.93;95310.22;4972003;28;20035;-52
2022/01/31 05:50:57;;;;;;;10.57;4.80;;;;;;;1.68;81.82;95314.22;4971296;28;20034;-51
2022/01/31 05:53:24;;;;;;;11.88;5.65;;;;;;;1.81;80.94;95304.69;4970748;28;20089;-55
2022/01/31 05:55:51;;;;;;;13.02;5.15;;;;;;;1.78;82.10;95299.94;4971442;28;20087;-51
2022/01/31 05:58:18;;;;;;;15.00;4.93;;;;;;;1.64;83.01;95308.66;4938966;28;20054;-53
2022/01/31 06:00:45;;;;;;;11.73;6.07;;;;;;;1.73;82.84;95305.34;4972445;28;20047;-53
2022/01/31 06:03:12;;;;;;;15.85;6.72;;;;;;;1.79;82.07;95293.53;4954698;28;20134;-53
2022/01/31 06:05:40;;;;;;;14.43;6.22;;;;;;;1.83;81.97;95292.63;4972573;28;20386;-54
2022/01/31 06:08:07;;;;;;;14.07;6.45;;;;;;;1.86;82.28;95309.94;4972037;28;20051;-54
2022/01/31 06:10:41;;;;;;;12.93;5.50;;;;;;;1.81;83.03;95316.13;4971513;28;20049;-51
2022/01/31 06:13:08;;;;;;;11.65;4.78;;;;;;;1.71;82.30;95299.50;4971542;28;20560;-52
2022/01/31 06:15:35;;;;;;;13.15;5.82;;;;;;;1.91;80.67;95293.84;4954491;28;20569;-53
2022/01/31 06:18:02;;;;;;;9.27;5.53;;;;;;;1.57;83.50;95286.94;4970864;28;20042;-51
2022/01/31 06:20:29;;;;;;;10.48;5.90;;;;;;;1.81;81.95;95272.66;4971264;28;20118;-54
2022/01/31 06:22:56;;;;;;;12.90;5.72;;;;;;;1.78;81.49;95257.25;4970030;28;20034;-51
2022/01/31 06:25:24;;;;;;;11.55;5.25;;;;;;;1.81;80.91;95251.34;4971992;28;20039;-52
2022/01/31 06:27:52;;;;;;;9.18;4.60;;;;;;;1.83;79.24;95254.50;4969675;28;20466;-54
2022/01/31 06:30:25;;;;;;;10.63;4.70;;;;;;;1.89;78.65;95237.34;4971015;28;20035;-52
2022/01/31 06:32:54;;;;;;;10.40;4.68;;;;;;;1.82;78.28;95244.91;4937194;28;20066;-53
2022/01/31 06:35:21;;;;;;;11.40;3.95;;;;;;;1.92;77.48;95247.44;4971349;28;20130;-55
2022/01/31 06:37:48;;;;;;;8.35;4.28;;;;;;;1.96;77.31;95231.63;4970357;28;20127;-54
2022/01/31 06:40:15;;;;;;;6.47;3.08;;;;;;;1.82;77.45;95247.56;4969988;28;20775;-54
2022/01/31 06:42:42;;;;;;;9.05;3.58;;;;;;;1.93;76.21;95227.66;4971618;28;20430;-53
2022/01/31 06:45:10;;;;;;;9.70;3.60;;;;;;;1.90;76.36;95228.25;4971089;28;20053;-53
2022/01/31 06:47:37;;;;;;;7.65;3.67;;;;;;;1.91;76.22;95211.16;4970711;28;20165;-52
2022/01/31 06:50:07;;;;;;;8.05;3.40;;;;;;;1.93;74.47;95210.88;4971086;28;20053;-56
2022/01/31 06:52:36;;;;;;;6.68;3.15;;;;;;;2.03;74.54;95194.66;4969687;28;20102;-51
2022/01/31 06:55:06;;;;;;;12.18;3.60;;;;;;;2.04;74.39;95196.25;4954103;28;20050;-53
2022/01/31 06:57:34;;;;;;;7.97;3.42;;;;;;;1.98;74.22;95206.22;4970110;28;20098;-53
2022/01/31 07:00:05;;;;;;;7.50;3.17;;;;;;;1.91;74.47;95194.34;4985559;28;20039;-54
2022/01/31 07:02:33;;;;;;;8.68;3.00;;;;;;;2.07;73.94;95191.09;4970053;28;20126;-53
2022/01/31 07:05:00;;;;;;;9.00;2.92;;;;;;;2.02;73.77;95177.09;4971566;28;20053;-51
2022/01/31 07:07:29;;;;;;;6.43;2.38;;;;;;;2.03;73.87;95174.09;4970868;28;20142;-51
2022/01/31 07:09:56;;;;;;;6.63;3.08;;;;;;;2.20;72.76;95170.06;4970131;28;20043;-50
2022/01/31 07:12:31;;;;;;;9.18;2.90;;;;;;;2.10;72.90;95155.81;4970579;28;20126;-54
2022/01/31 07:15:00;;;;;;;13.70;5.88;;;;;;;2.21;73.25;95150.28;4970311;28;20085;-51
2022/01/31 07:17:27;;;;;;;6.65;2.80;;;;;;;2.26;72.75;95148.31;4970368;28;20055;-52
2022/01/31 07:19:55;;;;;;;13.65;4.00;;;;;;;2.29;72.53;95142.38;4971317;28;20045;-52
2022/01/31 07:22:28;;;;;;;8.10;2.72;;;;;;;2.13;73.13;95140.31;4969012;28;20078;-56
2022/01/31 07:25:05;;;;;;;8.30;2.50;;;;;;;2.13;73.79;95142.97;4970899;28;20051;-52
2022/01/31 07:27:32;;;;;;;5.78;2.75;;;;;;;2.20;74.33;95140.69;4993162;22;20054;-49
2022/01/31 07:30:00;;;;;;;6.47;2.30;;;;;;;2.12;75.04;95128.84;5012090;28;20327;-49
2022/01/31 07:32:28;;;;;;;10.38;2.70;;;;;;;2.35;74.21;95121.72;5019383;28;20041;-49
2022/01/31 07:34:56;;;;;;;11.05;3.47;;;;;;;2.39;74.65;95100.53;5031634;28;20163;-47
2022/01/31 07:37:24;;;;;;;9.68;3.50;;;;;;;2.31;75.02;95104.72;5030168;28;20417;-47
2022/01/31 07:39:51;;;;;;;6.68;2.90;;;;;;;2.36;74.88;95090.47;5028080;28;20049;-46
2022/01/31 07:42:19;;;;;;;10.77;3.15;;;;;;;2.48;74.66;95078.16;5020036;28;20407;-47
2022/01/31 07:44:47;;;;;;;8.32;2.60;;;;;;;2.51;75.12;95066.88;5029147;28;20050;-51
2022/01/31 07:47:14;;;;;;;8.35;2.80;;;;;;;2.46;75.52;95058.19;5027944;28;20133;-47
2022/01/31 07:49:41;;;;;;;5.57;2.60;;;;;;;2.39;76.16;95050.59;5014682;28;20038;-48
2022/01/31 07:52:08;;;;;;;11.65;3.00;;;;;;;2.62;75.63;95046.06;5032192;28;20550;-50
2022/01/31 07:54:44;;;;;;;5.40;2.53;;;;;;;2.53;75.92;95054.00;5031645;28;20095;-52
2022/01/31 07:57:24;;;;;;;5.13;2.10;;;;;;;2.55;76.23;95051.03;4998541;28;20056;-49
2022/01/31 08:00:06;;;;;;;9.60;2.88;;;;;;;2.58;76.13;95042.44;5028528;28;20053;-49
2022/01/31 08:02:41;;;;;;;6.05;2.55;;;;;;;2.81;75.15;95030.66;5007312;28;20051;-52
2022/01/31 08:05:09;;;;;;;7.32;2.47;;;;;;;2.67;76.44;95024.59;5036116;28;20233;-49
2022/01/31 08:07:36;;;;;;;4.70;2.13;;;;;;;2.69;75.92;95025.06;5014849;28;20501;-50
2022/01/31 08:10:05;;;;;;;7.57;2.40;;;;;;;2.86;75.89;95020.91;5030620;28;20049;-51
2022/01/31 08:12:35;;;;;;;7.55;2.17;;;;;;;2.79;75.89;95010.66;5028433;28;20072;-49
2022/01/31 08:15:07;;;;;;;6.75;2.20;;;;;;;2.88;75.72;95003.50;5030869;28;20490;-52
2022/01/31 08:17:34;;;;;;;8.63;3.10;;;;;;;2.99;75.13;95002.16;5029843;28;20107;-49
2022/01/31 08:20:02;;;;;;;7.45;2.67;;;;;;;3.07;75.11;94997.16;5018630;28;20051;-50
2022/01/31 08:22:29;;;;;;;8.13;2.90;;;;;;;3.06;74.72;95001.72;5044386;28;20042;-49
2022/01/31 08:24:56;;;;;;;4.05;2.42;;;;;;;3.13;75.10;94987.91;5006552;28;20041;-51
2022/01/31 08:27:23;;;;;;;6.82;2.42;;;;;;;3.04;76.13;94985.97;5022403;28;20065;-48
2022/01/31 08:29:55;;;;;;;10.10;2.70;;;;;;;3.11;76.44;95000.78;5030732;28;20048;-51
2022/01/31 08:32:34;;;;;;;6.30;2.47;;;;;;;3.02;76.99;95006.09;5021752;28;20045;-52
2022/01/31 08:37:47;;;;;;;7.07;2.70;;;;;;;3.09;77.37;95019.00;5028047;28;20041;-51
2022/01/31 08:40:14;;;;;;;7.68;3.10;;;;;;;3.10;77.71;95008.03;5021033;28;20060;-50
2022/01/31 08:42:46;;;;;;;8.70;2.95;;;;;;;2.63;81.63;95026.28;5033193;28;20149;-50
2022/01/31 08:45:14;;;;;;;7.68;2.50;;;;;;;2.47;83.40;94999.16;5019648;28;20073;-51
2022/01/31 08:47:42;;;;;;;9.35;3.42;;;;;;;2.65;83.02;94993.94;5018167;28;20037;-48
2022/01/31 08:50:10;;;;;;;8.15;4.07;;;;;;;2.55;84.36;94995.75;5015572;28;20049;-50
2022/01/31 08:52:38;;;;;;;6.53;3.58;;;;;;;2.52;85.64;94992.91;5006751;28;20038;-48
2022/01/31 08:55:07;;;;;;;8.30;3.00;;;;;;;2.62;84.75;94981.19;5016302;28;20644;-49
2022/01/31 08:57:34;;;;;;;7.18;3.30;;;;;;;2.59;84.88;94982.56;5033767;28;20128;-50
2022/01/31 09:00:01;;;;;;;8.93;3.30;;;;;;;2.60;85.16;94994.03;5019863;28;20136;-49
2022/01/31 09:02:38;;;;;;;5.90;3.00;;;;;;;2.38;87.09;94986.84;5032983;28;20116;-52
2022/01/31 09:05:07;;;;;;;7.68;3.13;;;;;;;2.31;87.67;94985.38;5016644;28;20208;-53
2022/01/31 09:07:34;;;;;;;8.95;4.03;;;;;;;2.36;88.09;94978.34;4999558;28;20072;-51
2022/01/31 09:10:01;;;;;;;6.13;3.20;;;;;;;2.40;88.55;94985.44;5030283;28;20133;-51
2022/01/31 09:12:32;;;;;;;9.55;3.45;;;;;;;2.38;88.51;94987.63;5032693;28;20046;-49
2022/01/31 09:14:59;;;;;;;5.70;3.08;;;;;;;2.35;88.09;94980.22;5015041;28;20451;-48
2022/01/31 09:17:26;;;;;;;6.88;3.15;;;;;;;2.36;88.41;94970.34;5021433;28;20077;-49
2022/01/31 09:19:53;;;;;;;8.00;3.33;;;;;;;2.45;87.37;94961.28;5020698;28;20105;-47
2022/01/31 09:22:20;;;;;;;7.05;3.38;;;;;;;2.51;86.57;94983.31;5029010;28;20129;-52
2022/01/31 09:24:50;;;;;;;6.18;3.00;;;;;;;2.61;86.96;94971.59;5020246;28;20056;-51
2022/01/31 09:27:17;;;;;;;8.00;3.47;;;;;;;2.41;87.34;94960.34;5022529;28;20045;-49
2022/01/31 09:29:44;;;;;;;6.95;3.05;;;;;;;2.48;87.16;94966.03;5028220;28;20053;-48
2022/01/31 09:32:12;;;;;;;9.15;3.30;;;;;;;2.39;88.19;94957.16;5012522;28;20524;-51
2022/01/31 09:34:40;;;;;;;9.32;3.65;;;;;;;2.65;86.53;94945.88;5033370;28;20128;-50
2022/01/31 09:37:08;;;;;;;5.72;2.95;;;;;;;2.75;86.15;94969.63;5033389;28;20052;-49
2022/01/31 09:39:36;;;;;;;6.78;3.45;;;;;;;2.75;86.07;94965.09;5014324;28;20483;-50
2022/01/31 09:42:08;;;;;;;6.57;3.10;;;;;;;2.60;87.91;94962.81;5007972;28;20479;-49
2022/01/31 09:47:18;;;;;;;4.40;2.83;;;;;;;2.32;90.79;94962.16;5033244;28;20049;-50
2022/01/31 09:49:45;;;;;;;4.60;2.88;;;;;;;2.40;89.11;94972.09;5015373;28;20033;-52
2022/01/31 09:52:13;;;;;;;6.57;3.00;;;;;;;2.39;89.61;95002.53;5009898;28;20128;-51
2022/01/31 09:54:42;;;;;;;7.25;2.90;;;;;;;2.28;90.69;94974.53;5021124;28;20076;-49
2022/01/31 09:57:11;;;;;;;5.30;2.50;;;;;;;2.26;92.30;94966.03;5027533;28;20045;-54
2022/01/31 09:59:38;;;;;;;5.50;2.90;;;;;;;2.29;91.31;94970.75;5030264;28;20047;-48
2022/01/31 10:02:10;;;;;;;5.43;2.95;;;;;;;2.39;90.43;94957.16;5030672;28;20052;-50
2022/01/31 10:04:43;;;;;;;5.43;2.58;;;;;;;2.46;90.72;94981.56;5009588;28;20061;-48
2022/01/31 10:07:13;;;;;;;6.05;2.58;;;;;;;2.30;90.34;94989.13;5027961;28;20056;-49
2022/01/31 10:09:43;;;;;;;6.43;2.95;;;;;;;2.41;90.09;94975.56;5031147;28;20038;-49
2022/01/31 10:17:44;;;;;;;5.78;3.30;;;;;;;2.34;91.38;94958.09;5030001;28;20091;-52
2022/01/31 10:20:14;;;;;;;4.60;1.85;;;;;;;2.30;91.34;94969.66;5032652;28;20029;-48
2022/01/31 10:22:44;;;;;;;5.90;2.20;;;;;;;2.41;90.48;94960.34;5025974;28;20049;-51
2022/01/31 10:25:14;;;;;;;4.25;2.42;;;;;;;2.44;90.70;94965.06;5014002;28;20057;-49
2022/01/31 10:28:13;;;;;;;3.38;2.00;;;;;;;2.49;91.35;94959.59;5012570;28;20383;-48
2022/01/31 10:30:45;;;;;;;5.38;2.20;;;;;;;2.34;92.20;94962.66;5018783;28;20056;-46
2022/01/31 10:33:21;;;;;;;4.25;2.45;;;;;;;2.51;90.63;94965.41;5012322;28;20041;-47
2022/01/31 10:35:48;;;;;;;4.90;2.08;;;;;;;2.47;92.17;94975.13;5013769;28;20041;-53
2022/01/31 10:38:33;;;;;;;5.93;2.45;;;;;;;2.45;90.56;94971.19;5013950;28;20046;-50
2022/01/31 10:54:39;;;;;;;5.55;2.05;;;;;;;2.63;89.72;94956.84;5027220;28;20058;-49
2022/01/31 10:57:15;;;;;;;2.35;1.48;;;;;;;2.84;88.27;94961.69;5032912;28;20053;-49
2022/01/31 10:59:47;;;;;;;5.10;1.65;;;;;;;2.80;87.29;94958.84;5020601;28;20706;-54
2022/01/31 11:02:18;;;;;;;3.90;1.50;;;;;;;2.69;88.23;94965.50;5008238;28;20037;-52
2022/01/31 11:04:47;;;;;;;4.28;1.60;;;;;;;2.72;88.30;94965.69;5023307;28;20095;-53
2022/01/31 11:07:26;;;;;;;2.80;1.40;;;;;;;2.68;89.43;94964.72;5010554;28;20080;-51
2022/01/31 11:09:54;;;;;;;1.83;1.30;;;;;;;2.71;90.24;94979.38;5029970;28;20048;-52
2022/01/31 11:12:23;;;;;;;2.38;1.30;;;;;;;2.47;90.75;94960.97;5014645;28;20418;-51
2022/01/31 11:14:56;;;;;;;2.78;1.40;;;;;;;2.47;90.58;94968.97;5014862;28;20045;-54
2022/01/31 11:17:24;;;;;;;1.85;1.10;;;;;;;2.28;92.09;94961.19;5009973;28;20061;-51
2022/01/31 11:19:57;;;;;;;2.17;1.40;;;;;;;2.48;91.62;94957.22;5028428;28;20045;-52
2022/01/31 11:22:34;;;;;;;1.35;0.88;;;;;;;2.30;91.58;94958.97;5011012;28;20084;-49
2022/01/31 11:25:20;;;;;;;2.60;1.45;;;;;;;2.75;88.90;94964.31;4992207;28;20061;-53
2022/01/31 11:27:58;;;;;;;2.45;1.55;;;;;;;2.80;87.30;94956.16;5019083;28;20049;-49
2022/01/31 11:30:26;;;;;;;3.55;1.50;;;;;;;2.84;86.95;94965.13;5013813;28;20487;-49
2022/01/31 11:32:54;;;;;;;1.70;1.13;;;;;;;2.82;86.59;94959.31;5021776;28;20045;-48
2022/01/31 11:35:22;;;;;;;1.45;1.00;;;;;;;2.88;86.15;94962.66;5013822;28;20132;-48
2022/01/31 11:37:51;;;;;;;3.38;1.23;;;;;;;3.07;85.89;94965.09;5013563;28;20125;-52
2022/01/31 11:40:20;;;;;;;1.83;1.17;;;;;;;3.23;84.28;94971.59;5013322;28;20057;-53
2022/01/31 11:42:49;;;;;;;1.55;1.10;;;;;;;3.06;85.68;94963.53;5014013;28;20477;-52
2022/01/31 11:45:23;;;;;;;2.83;1.27;;;;;;;3.03;86.26;94952.34;5031214;28;20147;-49
2022/01/31 11:47:52;;;;;;;1.88;1.10;;;;;;;3.01;85.41;94956.41;5017816;28;20046;-48
2022/01/31 11:50:21;;;;;;;2.20;1.13;;;;;;;2.91;86.61;94954.78;5013397;28;20449;-51
2022/01/31 11:52:53;;;;;;;2.13;1.30;;;;;;;3.19;85.29;94962.63;5008943;28;20492;-47
2022/01/31 11:55:36;;;;;;;1.88;1.10;;;;;;;3.04;85.50;94963.81;5025025;28;20050;-53
2022/01/31 11:58:08;;;;;;;2.13;0.95;;;;;;;3.07;83.98;94927.69;5030785;28;20453;-50
2022/01/31 12:00:39;;;;;;;1.52;1.00;;;;;;;3.10;83.74;94948.44;5027898;28;20103;-49
2022/01/31 12:03:09;;;;;;;2.75;1.08;;;;;;;2.81;85.47;94937.16;5030495;28;20111;-53
2022/01/31 12:05:38;;;;;;;1.50;1.27;;;;;;;2.99;84.73;94951.41;5009550;28;20033;-52
2022/01/31 12:08:05;;;;;;;2.10;0.93;;;;;;;3.11;84.10;94933.97;5010828;28;20117;-54
2022/01/31 12:10:40;;;;;;;2.42;1.00;;;;;;;3.30;83.08;94939.88;5007393;28;20693;-53
2022/01/31 12:13:33;;;;;;;1.23;0.80;;;;;;;3.06;83.21;94931.47;4986147;28;20442;-52
2022/01/31 12:24:10;;;;;;;2.75;0.82;;;;;;;3.22;81.29;94922.72;5010748;28;20117;-49